createdAt,value
2019-04-28T00:00:51.034Z,22.44
2019-04-28T00:01:51.247Z,22.39
2019-04-28T00:02:50.787Z,22.50
2019-04-28T00:03:51.476Z,22.47
2019-04-28T00:04:51.374Z,22.44
2019-04-28T00:05:51.410Z,22.44
2019-04-28T00:06:49.477Z,22.46
2019-04-28T00:07:50.549Z,22.53
2019-04-28T00:08:49.474Z,22.37
2019-04-28T00:09:51.028Z,22.43
2019-04-28T00:10:49.432Z,22.43
2019-04-28T00:11:49.419Z,22.34
2019-04-28T00:12:51.036Z,22.35
2019-04-28T00:13:49.419Z,22.43
2019-04-28T00:14:49.386Z,22.44
2019-04-28T00:15:49.384Z,22.46
2019-04-28T00:16:51.112Z,22.35
2019-04-28T00:17:49.353Z,22.41
2019-04-28T00:18:50.975Z,22.44
2019-04-28T00:19:51.358Z,22.38
2019-04-28T00:20:50.959Z,22.50
2019-04-28T00:21:49.307Z,22.39
2019-04-28T00:22:49.297Z,22.39
2019-04-28T00:23:51.114Z,22.32
2019-04-28T00:24:49.274Z,22.47
2019-04-28T00:25:51.438Z,22.43
2019-04-28T00:26:49.251Z,22.44
2019-04-28T00:27:49.240Z,22.39
2019-04-28T00:28:51.018Z,22.39
2019-04-28T00:29:49.217Z,22.31
2019-04-28T00:30:49.210Z,22.39
2019-04-28T00:31:51.158Z,22.39
2019-04-28T00:32:49.188Z,22.39
2019-04-28T00:33:51.130Z,22.32
2019-04-28T00:34:50.999Z,22.35
2019-04-28T00:35:49.150Z,22.38
2019-04-28T00:36:51.099Z,22.38
2019-04-28T00:37:49.131Z,22.39
2019-04-28T00:38:49.120Z,22.35
2019-04-28T00:39:50.861Z,22.35
2019-04-28T00:40:49.093Z,22.43
2019-04-28T00:41:49.083Z,22.39
2019-04-28T00:42:49.074Z,22.37
2019-04-28T00:43:49.060Z,22.41
2019-04-28T00:44:49.070Z,22.41
2019-04-28T00:45:49.037Z,22.34
2019-04-28T00:46:51.031Z,22.38
2019-04-28T00:47:50.941Z,22.39
2019-04-28T00:48:50.738Z,22.32
2019-04-28T00:49:49.013Z,22.32
2019-04-28T00:50:48.983Z,22.39
2019-04-28T00:51:50.505Z,22.32
2019-04-28T00:52:48.959Z,22.44
2019-04-28T00:53:50.765Z,22.39
2019-04-28T00:54:48.958Z,22.32
2019-04-28T00:55:48.928Z,22.38
2019-04-28T00:56:48.918Z,22.34
2019-04-28T00:57:50.833Z,22.49
2019-04-28T00:58:48.894Z,22.47
2019-04-28T00:59:56.849Z,22.49
2019-04-28T01:00:51.366Z,22.41
2019-04-28T01:01:48.879Z,22.44
2019-04-28T01:02:48.852Z,22.29
2019-04-28T01:03:48.838Z,22.41
2019-04-28T01:04:48.823Z,22.35
2019-04-28T01:05:50.758Z,22.39
2019-04-28T01:06:48.800Z,22.29
2019-04-28T01:07:48.790Z,22.32
2019-04-28T01:08:48.779Z,22.41
2019-04-28T01:09:48.771Z,22.37
2019-04-28T01:10:50.748Z,22.38
2019-04-28T01:11:48.750Z,22.43
2019-04-28T01:12:48.733Z,22.32
2019-04-28T01:13:48.722Z,22.43
2019-04-28T01:14:49.776Z,22.34
2019-04-28T01:15:49.648Z,22.41
2019-04-28T01:16:50.028Z,22.37
2019-04-28T01:17:49.703Z,22.38
2019-04-28T01:18:50.189Z,22.41
2019-04-28T01:19:49.648Z,22.39
2019-04-28T01:20:49.590Z,22.32
2019-04-28T01:21:50.246Z,22.43
2019-04-28T01:22:49.666Z,22.43
2019-04-28T01:23:50.142Z,22.41
2019-04-28T01:24:49.703Z,22.38
2019-04-28T01:25:50.082Z,22.43
2019-04-28T01:26:50.746Z,22.38
2019-04-28T01:27:50.448Z,22.43
2019-04-28T01:28:49.664Z,22.37
2019-04-28T01:29:49.866Z,22.35
2019-04-28T01:30:50.055Z,22.43
2019-04-28T01:31:49.402Z,22.39
2019-04-28T01:32:49.809Z,22.41
2019-04-28T01:33:50.106Z,22.35
2019-04-28T01:34:49.863Z,22.32
2019-04-28T01:35:49.403Z,22.38
2019-04-28T01:36:49.512Z,22.41
2019-04-28T01:37:50.457Z,22.43
2019-04-28T01:38:50.044Z,22.39
2019-04-28T01:39:49.603Z,22.39
2019-04-28T01:40:49.952Z,22.38
2019-04-28T01:41:49.616Z,22.35
2019-04-28T01:42:49.979Z,22.32
2019-04-28T01:43:48.384Z,22.32
2019-04-28T01:44:49.484Z,22.35
2019-04-28T01:45:50.094Z,22.43
2019-04-28T01:46:49.609Z,22.29
2019-04-28T01:47:50.255Z,22.37
2019-04-28T01:48:49.748Z,22.34
2019-04-28T01:49:50.064Z,22.38
2019-04-28T01:50:49.960Z,22.41
2019-04-28T01:51:50.168Z,22.34
2019-04-28T01:52:49.733Z,22.32
2019-04-28T01:53:48.272Z,22.39
2019-04-28T01:54:50.150Z,22.41
2019-04-28T01:55:49.535Z,22.39
2019-04-28T01:56:50.163Z,22.37
2019-04-28T01:57:49.754Z,22.32
2019-04-28T01:58:49.946Z,22.39
2019-04-28T01:59:49.875Z,22.37
2019-04-28T02:00:48.193Z,22.35
2019-04-28T02:01:49.773Z,22.41
2019-04-28T02:02:48.171Z,22.34
2019-04-28T02:03:50.148Z,22.31
2019-04-28T02:04:49.772Z,22.37
2019-04-28T02:05:50.068Z,22.35
2019-04-28T02:06:49.744Z,22.44
2019-04-28T02:07:48.130Z,22.41
2019-04-28T02:08:51.092Z,22.43
2019-04-28T02:09:49.497Z,22.43
2019-04-28T02:10:50.077Z,22.38
2019-04-28T02:11:49.781Z,22.41
2019-04-28T02:12:48.058Z,22.34
2019-04-28T02:13:49.694Z,22.37
2019-04-28T02:14:48.035Z,22.41
2019-04-28T02:15:49.917Z,22.38
2019-04-28T02:16:48.035Z,22.32
2019-04-28T02:17:49.974Z,22.44
2019-04-28T02:18:49.608Z,22.38
2019-04-28T02:19:47.980Z,22.39
2019-04-28T02:20:49.344Z,22.32
2019-04-28T02:21:49.557Z,22.31
2019-04-28T02:22:47.949Z,22.37
2019-04-28T02:23:49.296Z,22.38
2019-04-28T02:24:47.924Z,22.38
2019-04-28T02:25:49.734Z,22.35
2019-04-28T02:26:47.923Z,22.31
2019-04-28T02:27:49.877Z,22.38
2019-04-28T02:28:47.899Z,22.35
2019-04-28T02:29:49.803Z,22.41
2019-04-28T02:30:52.705Z,22.41
2019-04-28T02:31:51.028Z,22.34
2019-04-28T02:32:47.834Z,22.32
2019-04-28T02:33:50.918Z,22.35
2019-04-28T02:34:50.696Z,22.35
2019-04-28T02:35:47.800Z,22.37
2019-04-28T02:36:53.162Z,22.32
2019-04-28T02:37:50.299Z,22.32
2019-04-28T02:38:47.766Z,22.35
2019-04-28T02:39:50.226Z,22.39
2019-04-28T02:40:50.114Z,22.34
2019-04-28T02:41:47.733Z,22.35
2019-04-28T02:42:47.746Z,22.38
2019-04-28T02:43:47.711Z,22.35
2019-04-28T02:44:50.259Z,22.32
2019-04-28T02:45:47.691Z,22.35
2019-04-28T02:46:47.678Z,22.35
2019-04-28T02:47:47.687Z,22.43
2019-04-28T02:48:50.847Z,22.37
2019-04-28T02:49:50.358Z,22.43
2019-04-28T02:50:47.631Z,22.32
2019-04-28T02:51:50.467Z,22.38
2019-04-28T02:52:47.638Z,22.37
2019-04-28T02:53:47.598Z,22.38
2019-04-28T02:54:50.487Z,22.41
2019-04-28T02:55:47.576Z,22.39
2019-04-28T02:56:47.564Z,22.34
2019-04-28T02:57:47.575Z,22.31
2019-04-28T02:58:47.540Z,22.37
2019-04-28T02:59:50.524Z,22.37
2019-04-28T03:01:02.892Z,22.38
2019-04-28T03:01:50.918Z,22.37
2019-04-28T03:02:47.521Z,22.31
2019-04-28T03:03:47.485Z,22.32
2019-04-28T03:04:50.372Z,22.35
2019-04-28T03:05:47.469Z,22.35
2019-04-28T03:06:47.459Z,22.38
2019-04-28T03:07:47.464Z,22.35
2019-04-28T03:08:47.428Z,22.39
2019-04-28T03:09:47.418Z,22.38
2019-04-28T03:10:47.407Z,22.38
2019-04-28T03:11:47.396Z,22.31
2019-04-28T03:12:47.406Z,22.35
2019-04-28T03:13:47.373Z,22.39
2019-04-28T03:14:47.365Z,22.43
2019-04-28T03:15:47.350Z,22.39
2019-04-28T03:16:47.345Z,22.39
2019-04-28T03:17:50.527Z,22.41
2019-04-28T03:18:51.220Z,22.35
2019-04-28T03:19:47.306Z,22.41
2019-04-28T03:20:47.298Z,22.38
2019-04-28T03:21:47.284Z,22.29
2019-04-28T03:22:47.271Z,22.39
2019-04-28T03:23:47.282Z,22.41
2019-04-28T03:24:47.250Z,22.44
2019-04-28T03:25:47.239Z,22.38
2019-04-28T03:26:47.228Z,22.39
2019-04-28T03:27:47.215Z,22.34
2019-04-28T03:28:47.225Z,22.41
2019-04-28T03:29:47.196Z,22.38
2019-04-28T03:30:47.190Z,22.37
2019-04-28T03:32:13.816Z,22.39
2019-04-28T03:32:55.020Z,22.39
2019-04-28T03:33:53.746Z,22.41
2019-04-28T03:34:53.085Z,22.39
2019-04-28T03:35:48.127Z,22.38
2019-04-28T03:36:47.114Z,22.41
2019-04-28T03:37:47.105Z,22.41
2019-04-28T03:38:47.115Z,22.34
2019-04-28T03:39:47.079Z,22.37
2019-04-28T03:40:47.074Z,22.39
2019-04-28T03:41:47.063Z,22.35
2019-04-28T03:42:47.057Z,22.34
2019-04-28T03:43:47.056Z,22.39
2019-04-28T03:44:47.023Z,22.39
2019-04-28T03:45:47.023Z,22.39
2019-04-28T03:46:47.018Z,22.38
2019-04-28T03:47:46.992Z,22.37
2019-04-28T03:48:47.004Z,22.39
2019-04-28T03:49:46.970Z,22.37
2019-04-28T03:50:46.957Z,22.43
2019-04-28T03:51:46.947Z,22.37
2019-04-28T03:52:46.937Z,22.37
2019-04-28T03:53:46.950Z,22.38
2019-04-28T03:54:46.916Z,22.38
2019-04-28T03:55:46.901Z,22.39
2019-04-28T03:56:46.893Z,22.29
2019-04-28T03:57:46.877Z,22.39
2019-04-28T03:58:46.888Z,22.37
2019-04-28T03:59:46.865Z,22.43
2019-04-28T04:00:46.851Z,22.35
2019-04-28T04:01:56.642Z,22.39
2019-04-28T04:02:50.639Z,22.32
2019-04-28T04:03:46.836Z,22.34
2019-04-28T04:04:46.799Z,22.35
2019-04-28T04:05:46.789Z,22.38
2019-04-28T04:06:46.780Z,22.37
2019-04-28T04:07:46.769Z,22.37
2019-04-28T04:08:46.775Z,22.38
2019-04-28T04:09:46.751Z,22.37
2019-04-28T04:10:46.735Z,22.41
2019-04-28T04:11:46.719Z,22.35
2019-04-28T04:12:46.712Z,22.38
2019-04-28T04:13:46.723Z,22.32
2019-04-28T04:14:46.690Z,22.34
2019-04-28T04:15:49.529Z,22.41
2019-04-28T04:16:50.075Z,22.29
2019-04-28T04:17:46.652Z,22.37
2019-04-28T04:18:46.672Z,22.29
2019-04-28T04:19:46.630Z,22.37
2019-04-28T04:20:46.620Z,22.31
2019-04-28T04:21:46.615Z,22.35
2019-04-28T04:22:46.597Z,22.31
2019-04-28T04:23:46.611Z,22.38
2019-04-28T04:24:46.595Z,22.35
2019-04-28T04:25:46.566Z,22.32
2019-04-28T04:26:46.553Z,22.32
2019-04-28T04:27:46.540Z,22.37
2019-04-28T04:28:46.533Z,22.34
2019-04-28T04:29:46.542Z,22.39
2019-04-28T04:30:46.506Z,22.38
2019-04-28T04:31:46.496Z,22.37
2019-04-28T04:32:46.499Z,22.32
2019-04-28T04:33:46.473Z,22.39
2019-04-28T04:34:46.492Z,22.32
2019-04-28T04:35:46.450Z,22.39
2019-04-28T04:36:46.440Z,22.37
2019-04-28T04:37:46.432Z,22.34
2019-04-28T04:38:46.599Z,22.32
2019-04-28T04:39:46.427Z,22.34
2019-04-28T04:40:46.419Z,22.39
2019-04-28T04:41:46.382Z,22.32
2019-04-28T04:42:46.375Z,22.39
2019-04-28T04:43:46.363Z,22.34
2019-04-28T04:44:46.349Z,22.31
2019-04-28T04:45:46.360Z,22.34
2019-04-28T04:46:46.331Z,22.34
2019-04-28T04:47:46.314Z,22.31
2019-04-28T04:48:46.311Z,22.31
2019-04-28T04:49:46.292Z,22.31
2019-04-28T04:50:46.304Z,22.32
2019-04-28T04:51:46.270Z,22.34
2019-04-28T04:52:46.260Z,22.29
2019-04-28T04:53:46.246Z,22.32
2019-04-28T04:54:46.235Z,22.31
2019-04-28T04:55:46.248Z,22.34
2019-04-28T04:56:46.220Z,22.34
2019-04-28T04:57:46.202Z,22.31
2019-04-28T04:58:46.195Z,22.32
2019-04-28T04:59:46.179Z,22.32
2019-04-28T05:00:46.193Z,22.32
2019-04-28T05:01:46.163Z,22.35
2019-04-28T05:02:52.020Z,22.35
2019-04-28T05:03:47.133Z,22.29
2019-04-28T05:04:46.124Z,22.32
2019-04-28T05:05:46.138Z,22.37
2019-04-28T05:06:46.122Z,22.29
2019-04-28T05:07:46.092Z,22.32
2019-04-28T05:08:46.078Z,22.31
2019-04-28T05:09:46.067Z,22.29
2019-04-28T05:10:46.059Z,22.32
2019-04-28T05:11:46.065Z,22.35
2019-04-28T05:12:46.037Z,22.37
2019-04-28T05:13:46.026Z,22.34
2019-04-28T05:14:46.010Z,22.29
2019-04-28T05:15:45.999Z,22.31
2019-04-28T05:16:46.014Z,22.29
2019-04-28T05:17:45.977Z,22.34
2019-04-28T05:18:45.965Z,22.39
2019-04-28T05:19:45.959Z,22.34
2019-04-28T05:20:45.946Z,22.35
2019-04-28T05:21:45.953Z,22.35
2019-04-28T05:22:45.924Z,22.35
2019-04-28T05:23:45.909Z,22.34
2019-04-28T05:24:46.215Z,22.35
2019-04-28T05:25:45.909Z,22.35
2019-04-28T05:26:47.488Z,22.31
2019-04-28T05:27:45.867Z,22.32
2019-04-28T05:28:51.506Z,22.34
2019-04-28T05:29:46.841Z,22.34
2019-04-28T05:30:45.832Z,22.27
2019-04-28T05:31:45.840Z,22.37
2019-04-28T05:32:55.422Z,22.34
2019-04-28T05:33:46.795Z,22.34
2019-04-28T05:34:46.978Z,22.35
2019-04-28T05:35:45.775Z,22.34
2019-04-28T05:36:45.765Z,22.31
2019-04-28T05:37:45.773Z,22.37
2019-04-28T05:38:45.744Z,22.34
2019-04-28T05:39:45.730Z,22.37
2019-04-28T05:40:45.718Z,22.32
2019-04-28T05:41:45.708Z,22.37
2019-04-28T05:42:45.717Z,22.35
2019-04-28T05:43:45.688Z,22.38
2019-04-28T05:44:45.676Z,22.35
2019-04-28T05:45:45.662Z,22.29
2019-04-28T05:46:45.652Z,22.31
2019-04-28T05:47:45.660Z,22.34
2019-04-28T05:48:45.629Z,22.29
2019-04-28T05:49:45.622Z,22.32
2019-04-28T05:50:45.607Z,22.28
2019-04-28T05:51:45.600Z,22.37
2019-04-28T05:52:45.607Z,22.32
2019-04-28T05:53:45.574Z,22.35
2019-04-28T05:54:45.564Z,22.41
2019-04-28T05:55:45.550Z,22.38
2019-04-28T05:56:45.539Z,22.34
2019-04-28T05:57:45.549Z,22.37
2019-04-28T05:58:45.519Z,22.35
2019-04-28T05:59:45.505Z,22.31
2019-04-28T06:00:45.502Z,22.38
2019-04-28T06:01:45.482Z,22.31
2019-04-28T06:02:54.188Z,22.34
2019-04-28T06:03:46.458Z,22.34
2019-04-28T06:04:45.448Z,22.43
2019-04-28T06:05:45.441Z,22.31
2019-04-28T06:06:45.449Z,22.34
2019-04-28T06:07:45.415Z,22.31
2019-04-28T06:08:45.427Z,22.37
2019-04-28T06:09:45.392Z,22.39
2019-04-28T06:10:45.380Z,22.41
2019-04-28T06:11:45.369Z,22.35
2019-04-28T06:12:45.359Z,22.35
2019-04-28T06:13:45.372Z,22.34
2019-04-28T06:14:45.336Z,22.39
2019-04-28T06:15:45.324Z,22.38
2019-04-28T06:16:45.317Z,22.32
2019-04-28T06:17:45.302Z,22.37
2019-04-28T06:18:45.312Z,22.43
2019-04-28T06:19:45.280Z,22.41
2019-04-28T06:20:45.268Z,22.41
2019-04-28T06:21:45.263Z,22.35
2019-04-28T06:22:45.246Z,22.38
2019-04-28T06:23:45.259Z,22.32
2019-04-28T06:24:45.223Z,22.39
2019-04-28T06:25:45.214Z,22.37
2019-04-28T06:26:45.200Z,22.38
2019-04-28T06:27:45.190Z,22.38
2019-04-28T06:28:45.200Z,22.41
2019-04-28T06:29:45.167Z,22.44
2019-04-28T06:30:45.156Z,22.43
2019-04-28T06:31:45.146Z,22.39
2019-04-28T06:32:45.134Z,22.37
2019-04-28T06:33:45.148Z,22.39
2019-04-28T06:34:45.115Z,22.39
2019-04-28T06:35:45.099Z,22.43
2019-04-28T06:36:45.088Z,22.41
2019-04-28T06:37:45.097Z,22.39
2019-04-28T06:38:45.065Z,22.41
2019-04-28T06:39:47.288Z,22.35
2019-04-28T06:40:45.043Z,22.39
2019-04-28T06:41:45.036Z,22.34
2019-04-28T06:42:45.021Z,22.41
2019-04-28T06:43:45.010Z,22.41
2019-04-28T06:44:45.023Z,22.39
2019-04-28T06:45:44.987Z,22.37
2019-04-28T06:46:44.975Z,22.38
2019-04-28T06:47:44.964Z,22.41
2019-04-28T06:48:44.955Z,22.41
2019-04-28T06:49:44.963Z,22.32
2019-04-28T06:50:44.932Z,22.32
2019-04-28T06:51:44.920Z,22.34
2019-04-28T06:52:44.909Z,22.38
2019-04-28T06:53:44.896Z,22.44
2019-04-28T06:54:44.907Z,22.41
2019-04-28T06:55:44.881Z,22.39
2019-04-28T06:56:44.866Z,22.41
2019-04-28T06:57:44.852Z,22.35
2019-04-28T06:58:44.841Z,22.37
2019-04-28T06:59:44.854Z,22.43
2019-04-28T07:00:44.823Z,22.39
2019-04-28T07:01:44.807Z,22.39
2019-04-28T07:02:44.795Z,22.32
2019-04-28T07:03:44.785Z,22.32
2019-04-28T07:04:44.796Z,22.47
2019-04-28T07:05:44.763Z,22.39
2019-04-28T07:06:44.753Z,22.29
2019-04-28T07:07:44.740Z,22.32
2019-04-28T07:08:44.734Z,22.43
2019-04-28T07:09:44.737Z,22.43
2019-04-28T07:10:44.705Z,22.53
2019-04-28T07:11:44.695Z,22.39
2019-04-28T07:12:44.687Z,22.50
2019-04-28T07:13:44.674Z,22.44
2019-04-28T07:14:44.685Z,22.46
2019-04-28T07:15:44.649Z,22.44
2019-04-28T07:16:44.643Z,22.44
2019-04-28T07:17:44.628Z,22.49
2019-04-28T07:18:44.619Z,22.53
2019-04-28T07:19:44.629Z,22.44
2019-04-28T07:20:44.593Z,22.49
2019-04-28T07:21:44.582Z,22.44
2019-04-28T07:22:44.570Z,22.49
2019-04-28T07:23:44.563Z,22.41
2019-04-28T07:24:44.948Z,22.49
2019-04-28T07:25:44.538Z,22.47
2019-04-28T07:26:44.529Z,22.53
2019-04-28T07:27:44.517Z,22.52
2019-04-28T07:28:44.525Z,22.44
2019-04-28T07:29:44.492Z,22.50
2019-04-28T07:30:44.503Z,22.47
2019-04-28T07:31:44.469Z,22.49
2019-04-28T07:32:44.459Z,22.49
2019-04-28T07:33:44.446Z,22.46
2019-04-28T07:34:44.435Z,22.49
2019-04-28T07:35:44.451Z,22.41
2019-04-28T07:36:44.413Z,22.50
2019-04-28T07:37:44.407Z,22.50
2019-04-28T07:38:44.391Z,22.56
2019-04-28T07:39:44.388Z,22.54
2019-04-28T07:40:44.389Z,22.46
2019-04-28T07:41:44.357Z,22.53
2019-04-28T07:42:44.349Z,22.47
2019-04-28T07:43:44.338Z,22.44
2019-04-28T07:44:44.328Z,22.46
2019-04-28T07:45:44.337Z,22.50
2019-04-28T07:46:44.302Z,22.49
2019-04-28T07:47:44.292Z,22.49
2019-04-28T07:48:44.284Z,22.53
2019-04-28T07:49:44.267Z,22.56
2019-04-28T07:50:44.283Z,22.53
2019-04-28T07:51:44.249Z,22.54
2019-04-28T07:52:44.244Z,22.57
2019-04-28T07:53:44.246Z,22.53
2019-04-28T07:54:44.212Z,22.54
2019-04-28T07:55:44.201Z,22.54
2019-04-28T07:56:44.211Z,22.47
2019-04-28T07:57:44.178Z,22.53
2019-04-28T07:58:44.190Z,22.56
2019-04-28T07:59:44.159Z,22.52
2019-04-28T08:00:44.145Z,22.47
2019-04-28T08:01:44.156Z,22.60
2019-04-28T08:02:44.123Z,22.56
2019-04-28T08:03:49.497Z,22.54
2019-04-28T08:04:45.099Z,22.54
2019-04-28T08:05:44.090Z,22.52
2019-04-28T08:06:44.102Z,22.56
2019-04-28T08:07:44.067Z,22.54
2019-04-28T08:08:44.054Z,22.53
2019-04-28T08:09:44.047Z,22.57
2019-04-28T08:10:44.033Z,22.53
2019-04-28T08:11:44.042Z,22.56
2019-04-28T08:12:44.011Z,22.62
2019-04-28T08:13:44.002Z,22.56
2019-04-28T08:14:43.988Z,22.60
2019-04-28T08:15:43.977Z,22.52
2019-04-28T08:16:43.987Z,22.54
2019-04-28T08:17:43.954Z,22.53
2019-04-28T08:18:43.944Z,22.60
2019-04-28T08:19:43.935Z,22.64
2019-04-28T08:20:43.925Z,22.59
2019-04-28T08:21:43.931Z,22.54
2019-04-28T08:22:43.904Z,22.57
2019-04-28T08:23:47.442Z,22.56
2019-04-28T08:24:43.879Z,22.59
2019-04-28T08:25:43.864Z,22.62
2019-04-28T08:26:43.875Z,22.60
2019-04-28T08:27:43.848Z,22.67
2019-04-28T08:28:43.832Z,22.59
2019-04-28T08:29:43.820Z,22.67
2019-04-28T08:30:43.809Z,22.64
2019-04-28T08:31:43.819Z,22.64
2019-04-28T08:32:43.786Z,22.65
2019-04-28T08:33:43.778Z,22.68
2019-04-28T08:34:43.787Z,22.56
2019-04-28T08:35:43.759Z,22.57
2019-04-28T08:36:43.741Z,22.72
2019-04-28T08:37:43.750Z,22.65
2019-04-28T08:38:43.773Z,22.62
2019-04-28T08:39:43.707Z,22.67
2019-04-28T08:40:43.701Z,22.69
2019-04-28T08:41:43.689Z,22.69
2019-04-28T08:42:43.696Z,22.68
2019-04-28T08:43:43.663Z,22.71
2019-04-28T08:44:43.655Z,22.65
2019-04-28T08:45:43.641Z,22.68
2019-04-28T08:46:43.629Z,22.69
2019-04-28T08:47:43.644Z,22.62
2019-04-28T08:48:43.607Z,22.62
2019-04-28T08:49:43.596Z,22.65
2019-04-28T08:50:43.589Z,22.72
2019-04-28T08:51:43.577Z,22.67
2019-04-28T08:52:43.587Z,22.72
2019-04-28T08:53:43.552Z,22.65
2019-04-28T08:54:43.544Z,22.68
2019-04-28T08:55:43.531Z,22.75
2019-04-28T08:56:43.517Z,22.77
2019-04-28T08:57:43.529Z,22.69
2019-04-28T08:58:43.497Z,22.67
2019-04-28T08:59:43.506Z,22.62
2019-04-28T09:00:43.480Z,22.67
2019-04-28T09:01:43.465Z,22.71
2019-04-28T09:02:43.452Z,22.67
2019-04-28T09:03:43.467Z,22.68
2019-04-28T09:04:43.432Z,22.72
2019-04-28T09:05:43.419Z,22.78
2019-04-28T09:06:43.406Z,22.78
2019-04-28T09:07:43.394Z,22.72
2019-04-28T09:08:43.404Z,22.82
2019-04-28T09:09:43.373Z,22.75
2019-04-28T09:10:43.364Z,22.74
2019-04-28T09:11:43.350Z,22.68
2019-04-28T09:12:43.355Z,22.77
2019-04-28T09:13:44.007Z,22.72
2019-04-28T09:14:43.317Z,22.69
2019-04-28T09:15:43.305Z,22.72
2019-04-28T09:16:43.294Z,22.72
2019-04-28T09:17:43.283Z,22.80
2019-04-28T09:18:43.293Z,22.67
2019-04-28T09:19:43.274Z,22.72
2019-04-28T09:20:43.249Z,22.72
2019-04-28T09:21:43.239Z,22.71
2019-04-28T09:22:43.228Z,22.77
2019-04-28T09:23:43.237Z,22.72
2019-04-28T09:24:43.208Z,22.75
2019-04-28T09:25:43.197Z,22.77
2019-04-28T09:26:43.183Z,22.77
2019-04-28T09:27:43.176Z,22.78
2019-04-28T09:28:43.184Z,22.74
2019-04-28T09:29:43.153Z,22.80
2019-04-28T09:30:43.162Z,22.74
2019-04-28T09:31:43.132Z,22.82
2019-04-28T09:32:43.116Z,22.80
2019-04-28T09:33:43.104Z,22.78
2019-04-28T09:34:43.114Z,22.84
2019-04-28T09:35:43.082Z,22.75
2019-04-28T09:36:43.074Z,22.80
2019-04-28T09:37:43.063Z,22.78
2019-04-28T09:38:43.049Z,22.84
2019-04-28T09:39:43.062Z,22.89
2019-04-28T09:40:43.026Z,22.78
2019-04-28T09:41:43.015Z,22.82
2019-04-28T09:42:43.005Z,22.80
2019-04-28T09:43:42.996Z,22.80
2019-04-28T09:44:43.002Z,22.82
2019-04-28T09:45:42.977Z,22.75
2019-04-28T09:46:42.960Z,22.90
2019-04-28T09:47:42.948Z,22.90
2019-04-28T09:48:42.936Z,22.87
2019-04-28T09:49:42.950Z,22.84
2019-04-28T09:50:42.919Z,22.71
2019-04-28T09:51:42.907Z,22.87
2019-04-28T09:52:42.891Z,22.80
2019-04-28T09:53:42.880Z,22.72
2019-04-28T09:54:42.891Z,22.84
2019-04-28T09:55:42.860Z,22.80
2019-04-28T09:56:55.781Z,22.82
2019-04-28T09:57:43.836Z,22.86
2019-04-28T09:58:42.825Z,22.82
2019-04-28T09:59:42.814Z,22.83
2019-04-28T10:00:42.826Z,22.78
2019-04-28T10:01:42.796Z,22.89
2019-04-28T10:02:42.783Z,22.83
2019-04-28T10:03:42.769Z,22.83
2019-04-28T10:04:42.766Z,22.86
2019-04-28T10:05:42.768Z,22.90
2019-04-28T10:06:42.737Z,22.82
2019-04-28T10:07:42.726Z,22.78
2019-04-28T10:08:42.717Z,22.80
2019-04-28T10:09:42.702Z,22.78
2019-04-28T10:10:42.713Z,22.84
2019-04-28T10:11:42.680Z,22.89
2019-04-28T10:12:42.672Z,22.86
2019-04-28T10:13:42.657Z,22.83
2019-04-28T10:14:42.646Z,22.86
2019-04-28T10:15:42.657Z,22.77
2019-04-28T10:16:42.628Z,22.80
2019-04-28T10:17:42.613Z,22.90
2019-04-28T10:18:42.602Z,22.83
2019-04-28T10:19:42.590Z,22.80
2019-04-28T10:20:42.600Z,22.86
2019-04-28T10:21:42.572Z,22.86
2019-04-28T10:22:42.579Z,22.80
2019-04-28T10:23:42.545Z,22.83
2019-04-28T10:24:42.540Z,22.82
2019-04-28T10:25:42.523Z,22.82
2019-04-28T10:26:42.534Z,22.89
2019-04-28T10:27:42.502Z,22.84
2019-04-28T10:28:42.490Z,22.82
2019-04-28T10:29:42.483Z,22.80
2019-04-28T10:30:42.471Z,22.89
2019-04-28T10:31:42.479Z,22.82
2019-04-28T10:32:42.450Z,22.82
2019-04-28T10:33:42.435Z,22.90
2019-04-28T10:34:54.388Z,22.78
2019-04-28T10:35:43.411Z,22.90
2019-04-28T10:36:42.422Z,22.84
2019-04-28T10:37:45.333Z,22.82
2019-04-28T10:38:42.383Z,22.86
2019-04-28T10:39:42.368Z,22.82
2019-04-28T10:40:42.356Z,22.83
2019-04-28T10:41:42.366Z,22.82
2019-04-28T10:42:42.334Z,22.84
2019-04-28T10:43:42.326Z,22.82
2019-04-28T10:44:42.311Z,22.90
2019-04-28T10:45:42.301Z,22.83
2019-04-28T10:46:42.315Z,22.82
2019-04-28T10:47:42.300Z,22.92
2019-04-28T10:48:42.269Z,22.84
2019-04-28T10:49:42.257Z,22.82
2019-04-28T10:50:42.250Z,22.80
2019-04-28T10:51:42.235Z,22.83
2019-04-28T10:52:42.244Z,22.82
2019-04-28T10:53:42.211Z,22.93
2019-04-28T10:54:42.203Z,22.87
2019-04-28T10:55:42.190Z,22.86
2019-04-28T10:56:42.183Z,22.82
2019-04-28T10:57:42.188Z,22.80
2019-04-28T10:58:42.155Z,22.87
2019-04-28T10:59:42.170Z,22.87
2019-04-28T11:00:42.133Z,22.82
2019-04-28T11:01:42.127Z,22.89
2019-04-28T11:02:42.156Z,22.87
2019-04-28T11:03:42.099Z,22.87
2019-04-28T11:04:42.093Z,22.83
2019-04-28T11:05:42.077Z,22.78
2019-04-28T11:06:42.066Z,22.87
2019-04-28T11:07:42.076Z,22.83
2019-04-28T11:08:42.045Z,22.93
2019-04-28T11:09:42.033Z,22.86
2019-04-28T11:10:42.021Z,22.82
2019-04-28T11:11:42.011Z,22.83
2019-04-28T11:12:42.020Z,22.96
2019-04-28T11:13:41.989Z,22.84
2019-04-28T11:14:41.977Z,22.84
2019-04-28T11:15:41.965Z,22.86
2019-04-28T11:16:41.961Z,22.83
2019-04-28T11:17:41.971Z,22.89
2019-04-28T11:18:41.936Z,22.89
2019-04-28T11:19:41.922Z,22.87
2019-04-28T11:20:41.911Z,22.92
2019-04-28T11:21:41.899Z,22.86
2019-04-28T11:22:41.909Z,22.86
2019-04-28T11:23:41.877Z,22.86
2019-04-28T11:24:41.868Z,22.92
2019-04-28T11:25:41.855Z,22.94
2019-04-28T11:26:41.844Z,22.87
2019-04-28T11:27:41.856Z,22.94
2019-04-28T11:28:41.821Z,22.94
2019-04-28T11:29:41.831Z,22.89
2019-04-28T11:30:41.798Z,22.97
2019-04-28T11:31:41.787Z,22.93
2019-04-28T11:32:41.776Z,22.94
2019-04-28T11:33:41.786Z,23.01
2019-04-28T11:34:41.754Z,22.93
2019-04-28T11:35:41.746Z,22.99
2019-04-28T11:36:41.732Z,23.02
2019-04-28T11:37:41.720Z,22.94
2019-04-28T11:38:41.730Z,22.94
2019-04-28T11:39:41.697Z,23.02
2019-04-28T11:40:41.686Z,22.92
2019-04-28T11:41:41.677Z,22.96
2019-04-28T11:42:41.664Z,22.97
2019-04-28T11:43:41.674Z,22.90
2019-04-28T11:44:41.645Z,22.92
2019-04-28T11:45:41.634Z,22.94
2019-04-28T11:46:41.620Z,23.02
2019-04-28T11:47:41.616Z,22.96
2019-04-28T11:48:41.619Z,23.05
2019-04-28T11:49:41.587Z,23.07
2019-04-28T11:50:41.578Z,22.97
2019-04-28T11:51:41.563Z,23.05
2019-04-28T11:52:41.559Z,22.96
2019-04-28T11:53:41.562Z,22.94
2019-04-28T11:54:41.531Z,22.89
2019-04-28T11:55:41.540Z,23.05
2019-04-28T11:56:42.030Z,22.96
2019-04-28T11:57:41.496Z,23.01
2019-04-28T11:58:41.487Z,23.01
2019-04-28T11:59:41.500Z,23.04
2019-04-28T12:00:41.463Z,22.97
2019-04-28T12:01:41.452Z,23.02
2019-04-28T12:02:41.441Z,23.08
2019-04-28T12:03:41.434Z,22.99
2019-04-28T12:04:41.439Z,23.02
2019-04-28T12:05:41.412Z,22.93
2019-04-28T12:06:41.396Z,22.93
2019-04-28T12:07:41.385Z,23.08
2019-04-28T12:08:41.377Z,23.05
2019-04-28T12:09:41.392Z,23.04
2019-04-28T12:10:41.352Z,23.04
2019-04-28T12:11:41.345Z,22.96
2019-04-28T12:12:41.330Z,22.93
2019-04-28T12:13:41.317Z,23.01
2019-04-28T12:14:41.329Z,22.92
2019-04-28T12:15:41.296Z,22.92
2019-04-28T12:16:41.288Z,22.92
2019-04-28T12:17:41.273Z,22.92
2019-04-28T12:18:41.262Z,22.93
2019-04-28T12:19:41.310Z,22.96
2019-04-28T12:20:41.244Z,22.90
2019-04-28T12:21:41.233Z,22.89
2019-04-28T12:22:41.218Z,22.93
2019-04-28T12:23:41.207Z,22.97
2019-04-28T12:24:41.217Z,22.90
2019-04-28T12:25:41.188Z,22.90
2019-04-28T12:26:41.177Z,22.89
2019-04-28T12:27:41.162Z,22.92
2019-04-28T12:28:41.150Z,22.87
2019-04-28T12:29:41.161Z,22.78
2019-04-28T12:30:41.132Z,22.84
2019-04-28T12:31:41.118Z,22.89
2019-04-28T12:32:41.111Z,22.86
2019-04-28T12:33:41.095Z,22.83
2019-04-28T12:34:41.109Z,22.86
2019-04-28T12:35:47.569Z,22.83
2019-04-28T12:36:42.084Z,22.84
2019-04-28T12:37:41.054Z,22.84
2019-04-28T12:38:41.041Z,22.84
2019-04-28T12:39:41.029Z,22.75
2019-04-28T12:40:41.038Z,22.80
2019-04-28T12:41:41.006Z,22.78
2019-04-28T12:42:40.995Z,22.83
2019-04-28T12:43:40.987Z,22.68
2019-04-28T12:44:40.973Z,22.77
2019-04-28T12:45:40.983Z,22.67
2019-04-28T12:46:40.950Z,22.62
2019-04-28T12:47:40.944Z,22.65
2019-04-28T12:48:40.928Z,22.68
2019-04-28T12:49:40.917Z,22.65
2019-04-28T12:50:40.930Z,22.54
2019-04-28T12:51:40.896Z,22.60
2019-04-28T12:52:40.883Z,22.57